Time;durP1;ratioP1;P1;durP2;ratioP2;P2;SDS_P1;SDS_P2;PMS_P1;PMS_P2;Temp;Humidity;BMP_temperature;BMP_pressure;BME280_temperature;BME280_humidity;BME280_pressure;Samples;Min_cycle;Max_cycle;Signal;HPM_P1;HPM_P2
2022/04/14 00:02:11;;;;;;;6.57;5.20;;;;;;;12.26;96.75;98121.13;5073904;28;20594;-64
2022/04/14 00:04:39;;;;;;;7.03;5.80;;;;;;;12.23;97.11;98124.03;5073602;28;20791;-64
2022/04/14 00:07:05;;;;;;;7.73;5.60;;;;;;;12.12;98.02;98116.03;5073477;28;20690;-65
2022/04/14 00:09:35;;;;;;;5.97;5.17;;;;;;;12.06;98.83;98127.09;5072108;28;20222;-64
2022/04/14 00:12:02;;;;;;;8.73;5.83;;;;;;;12.01;99.29;98116.00;5073618;28;20222;-64
2022/04/14 00:14:28;;;;;;;8.27;6.10;;;;;;;11.92;99.98;98116.69;5073655;28;20579;-65
2022/04/14 00:16:55;;;;;;;6.60;5.90;;;;;;;11.84;100.00;98113.75;5073513;28;20577;-64
2022/04/14 00:19:21;;;;;;;9.03;6.13;;;;;;;11.77;100.00;98117.81;5072725;28;20784;-64
2022/04/14 00:21:48;;;;;;;9.03;5.87;;;;;;;11.73;100.00;98116.38;5073056;28;20228;-63
2022/04/14 00:24:14;;;;;;;7.40;5.90;;;;;;;11.69;100.00;98114.91;5073139;28;20217;-65
2022/04/14 00:26:44;;;;;;;7.37;5.60;;;;;;;11.65;100.00;98114.28;5073564;28;20227;-64
2022/04/14 00:29:11;;;;;;;8.20;5.50;;;;;;;11.61;100.00;98112.81;5073142;28;20706;-64
2022/04/14 00:31:37;;;;;;;11.27;5.80;;;;;;;11.58;100.00;98122.75;5073350;28;20222;-64
2022/04/14 00:34:04;;;;;;;8.87;5.97;;;;;;;11.50;100.00;98136.53;5073443;28;20213;-66
2022/04/14 00:36:33;;;;;;;7.43;6.07;;;;;;;11.46;100.00;98128.94;5071699;28;20559;-64
2022/04/14 00:38:59;;;;;;;7.77;5.77;;;;;;;11.39;100.00;98138.28;5073109;28;20222;-64
2022/04/14 00:41:27;;;;;;;8.57;5.37;;;;;;;11.29;100.00;98131.97;5073059;28;20238;-64
2022/04/14 00:43:55;;;;;;;8.73;6.33;;;;;;;11.32;100.00;98142.34;5073347;28;20217;-64
2022/04/14 00:46:22;;;;;;;9.33;5.50;;;;;;;11.27;100.00;98131.25;5072904;28;20225;-64
2022/04/14 00:48:50;;;;;;;6.00;5.00;;;;;;;11.23;100.00;98135.03;5072774;28;20217;-63
2022/04/14 00:51:16;;;;;;;10.00;5.90;;;;;;;11.23;100.00;98138.56;5072877;28;20213;-64
2022/04/14 00:53:43;;;;;;;8.17;5.10;;;;;;;11.25;100.00;98141.09;5072827;28;20211;-64
2022/04/14 00:56:09;;;;;;;7.50;5.53;;;;;;;11.27;100.00;98141.81;5073155;28;20226;-64
2022/04/14 00:58:36;;;;;;;6.77;4.53;;;;;;;11.21;100.00;98142.25;5070543;28;20592;-63
2022/04/14 01:01:05;;;;;;;8.57;5.30;;;;;;;11.20;100.00;98148.50;5056874;28;20254;-65
2022/04/14 01:03:32;;;;;;;6.80;4.90;;;;;;;11.20;100.00;98145.88;5058303;28;20266;-64
2022/04/14 01:06:00;;;;;;;7.27;5.33;;;;;;;11.20;100.00;98137.94;5061678;28;20252;-64
2022/04/14 01:08:28;;;;;;;6.17;4.60;;;;;;;11.18;100.00;98145.13;5059963;28;20213;-64
2022/04/14 01:10:56;;;;;;;8.87;5.17;;;;;;;11.14;100.00;98143.66;5057891;28;20742;-64
2022/04/14 01:13:23;;;;;;;7.13;4.73;;;;;;;11.12;100.00;98142.94;5062027;28;20212;-64
2022/04/14 01:15:50;;;;;;;10.57;4.90;;;;;;;11.08;100.00;98144.09;5072143;28;20211;-64
2022/04/14 01:18:18;;;;;;;9.13;5.40;;;;;;;11.05;100.00;98152.22;5072729;28;20227;-64
2022/04/14 01:20:44;;;;;;;6.73;4.83;;;;;;;11.10;100.00;98148.31;5072505;28;20246;-64
2022/04/14 01:23:12;;;;;;;8.33;4.73;;;;;;;11.08;100.00;98155.50;5072667;28;20208;-64
2022/04/14 01:25:40;;;;;;;7.53;5.10;;;;;;;11.08;100.00;98154.66;5072588;28;20226;-64
2022/04/14 01:28:07;;;;;;;6.53;5.23;;;;;;;11.04;100.00;98158.47;5071072;28;20213;-64
2022/04/14 01:30:35;;;;;;;8.13;5.43;;;;;;;11.03;100.00;98162.06;5072589;28;20233;-64
2022/04/14 01:33:02;;;;;;;6.80;5.07;;;;;;;11.04;100.00;98158.47;5076093;28;20237;-64
2022/04/14 01:35:28;;;;;;;6.90;5.03;;;;;;;11.00;100.00;98159.66;5076750;28;20583;-64
2022/04/14 01:37:55;;;;;;;7.37;5.20;;;;;;;10.96;100.00;98155.53;5076745;28;20215;-64
2022/04/14 01:40:21;;;;;;;7.47;5.37;;;;;;;10.93;100.00;98155.72;5076376;28;20249;-64
2022/04/14 01:42:49;;;;;;;5.90;5.00;;;;;;;10.89;100.00;98159.56;5076606;28;20209;-64
2022/04/14 01:45:15;;;;;;;6.43;5.27;;;;;;;10.84;100.00;98166.97;5076231;28;20222;-64
2022/04/14 01:47:43;;;;;;;7.30;5.23;;;;;;;10.78;100.00;98164.75;5076562;28;20232;-64
2022/04/14 01:50:12;;;;;;;6.17;5.13;;;;;;;10.76;100.00;98169.31;5076190;28;20739;-64
2022/04/14 01:52:39;;;;;;;7.30;5.53;;;;;;;10.70;100.00;98175.00;5076439;28;20214;-63
2022/04/14 01:55:07;;;;;;;5.93;5.10;;;;;;;10.67;100.00;98175.22;5074641;28;20215;-64
2022/04/14 01:57:34;;;;;;;9.30;5.97;;;;;;;10.68;100.00;98176.91;5075981;28;20224;-64
2022/04/14 02:00:06;;;;;;;6.83;5.70;;;;;;;10.68;100.00;98182.19;5076188;28;20237;-64
2022/04/14 02:02:32;;;;;;;8.40;5.73;;;;;;;10.64;100.00;98188.66;5076260;28;20309;-64
2022/04/14 02:04:59;;;;;;;7.73;5.43;;;;;;;10.60;100.00;98185.38;5076074;28;20228;-64
2022/04/14 02:07:25;;;;;;;7.60;5.23;;;;;;;10.52;100.00;98187.69;5076075;28;20215;-64
2022/04/14 02:09:52;;;;;;;7.10;5.50;;;;;;;10.46;100.00;98184.63;5076206;28;20222;-64
2022/04/14 02:12:18;;;;;;;9.10;6.13;;;;;;;10.47;100.00;98188.94;5076075;28;20217;-64
2022/04/14 02:14:44;;;;;;;7.93;5.67;;;;;;;10.51;100.00;98185.16;5075965;28;20207;-64
2022/04/14 02:17:12;;;;;;;8.87;5.90;;;;;;;10.47;100.00;98181.84;5075815;28;20219;-64
2022/04/14 02:19:39;;;;;;;7.37;5.53;;;;;;;10.47;100.00;98192.41;5074173;28;20223;-63
2022/04/14 02:22:06;;;;;;;7.30;5.23;;;;;;;10.48;100.00;98190.63;5076025;28;20219;-64
2022/04/14 02:24:32;;;;;;;9.37;5.10;;;;;;;10.50;100.00;98200.16;5075682;28;20218;-64
2022/04/14 02:26:58;;;;;;;9.10;5.87;;;;;;;10.49;100.00;98197.59;5075549;28;20677;-64
2022/04/14 02:29:25;;;;;;;7.17;4.77;;;;;;;10.52;100.00;98197.41;5070628;28;20239;-64
2022/04/14 02:31:55;;;;;;;7.97;5.37;;;;;;;10.54;100.00;98201.66;5075354;28;20583;-63
2022/04/14 02:34:23;;;;;;;7.43;5.60;;;;;;;10.51;100.00;98195.72;5075526;28;20221;-64
2022/04/14 02:36:49;;;;;;;8.37;5.30;;;;;;;10.48;100.00;98193.28;5075572;28;20211;-63
2022/04/14 02:39:15;;;;;;;9.03;5.60;;;;;;;10.48;100.00;98199.41;5075537;28;20223;-64
2022/04/14 02:41:42;;;;;;;9.17;5.50;;;;;;;10.49;100.00;98197.59;5075008;28;20251;-64
2022/04/14 02:44:08;;;;;;;7.40;5.33;;;;;;;10.49;100.00;98203.75;5074431;28;20215;-64
2022/04/14 02:46:35;;;;;;;7.67;5.30;;;;;;;10.50;100.00;98202.78;5073630;28;20585;-63
2022/04/14 02:49:01;;;;;;;9.10;5.30;;;;;;;10.51;100.00;98195.72;5075369;28;20586;-64
2022/04/14 02:51:29;;;;;;;8.00;5.07;;;;;;;10.50;100.00;98199.28;5075023;28;20683;-63
2022/04/14 02:53:55;;;;;;;8.27;5.20;;;;;;;10.46;100.00;98206.59;5075143;28;20212;-64
2022/04/14 02:56:22;;;;;;;7.77;5.73;;;;;;;10.43;100.00;98203.31;5075009;28;20207;-64
2022/04/14 02:58:48;;;;;;;8.80;5.77;;;;;;;10.40;100.00;98207.00;5064019;28;20692;-64
2022/04/14 03:01:15;;;;;;;8.40;5.50;;;;;;;10.40;100.00;98212.28;5075113;28;20236;-63
2022/04/14 03:03:41;;;;;;;7.50;6.07;;;;;;;10.44;100.00;98210.28;5075101;28;20215;-64
2022/04/14 03:06:08;;;;;;;9.73;6.23;;;;;;;10.47;100.00;98210.09;5075060;28;20225;-64
2022/04/14 03:08:36;;;;;;;8.73;6.93;;;;;;;10.48;100.00;98209.13;5074947;28;20215;-64
2022/04/14 03:11:02;;;;;;;9.90;6.57;;;;;;;10.47;100.00;98210.09;5073995;28;20589;-64
2022/04/14 03:13:29;;;;;;;7.60;6.30;;;;;;;10.49;100.00;98213.47;5074437;28;20211;-64
2022/04/14 03:15:55;;;;;;;7.90;7.10;;;;;;;10.48;100.00;98214.41;5074526;28;20222;-64
2022/04/14 03:18:22;;;;;;;10.03;7.00;;;;;;;10.46;100.00;98219.78;5074730;28;20215;-64
2022/04/14 03:20:48;;;;;;;9.67;6.90;;;;;;;10.44;100.00;98212.91;5074497;28;20235;-64
2022/04/14 03:23:15;;;;;;;11.80;7.47;;;;;;;10.43;100.00;98216.50;5074265;28;20212;-63
2022/04/14 03:25:43;;;;;;;10.67;8.07;;;;;;;10.38;100.00;98208.03;5069377;28;20218;-64
2022/04/14 03:28:10;;;;;;;11.27;7.40;;;;;;;10.36;100.00;98225.81;5074345;28;20228;-64
2022/04/14 03:30:36;;;;;;;14.17;8.97;;;;;;;10.35;100.00;98221.47;5074644;28;20215;-64
2022/04/14 03:33:03;;;;;;;15.23;8.97;;;;;;;10.32;100.00;98227.81;5074612;28;20222;-64
2022/04/14 03:35:29;;;;;;;11.80;8.97;;;;;;;10.33;100.00;98228.66;5074356;28;20220;-64
2022/04/14 03:37:56;;;;;;;12.50;7.27;;;;;;;10.27;100.00;98229.06;5072704;28;20207;-64
2022/04/14 03:40:22;;;;;;;11.47;7.47;;;;;;;10.18;100.00;98229.66;5073978;28;20258;-65
2022/04/14 03:42:50;;;;;;;10.73;7.93;;;;;;;10.15;100.00;98229.88;5072105;28;20588;-65
2022/04/14 03:45:16;;;;;;;10.73;8.87;;;;;;;10.12;100.00;98230.06;5073604;28;20211;-64
2022/04/14 03:47:43;;;;;;;12.33;8.87;;;;;;;10.09;100.00;98228.47;5073828;28;20700;-64
2022/04/14 03:50:09;;;;;;;12.77;9.97;;;;;;;10.08;100.00;98224.16;5073830;28;20676;-64
2022/04/14 03:52:36;;;;;;;12.50;9.17;;;;;;;10.08;100.00;98234.72;5074206;28;20633;-64
2022/04/14 03:55:03;;;;;;;12.53;8.40;;;;;;;9.97;100.00;98234.53;5073709;28;20321;-65
2022/04/14 03:57:29;;;;;;;10.23;6.97;;;;;;;9.88;100.00;98236.91;5073953;28;20216;-63
2022/04/14 03:59:57;;;;;;;8.17;6.47;;;;;;;9.78;100.00;98230.56;5073709;28;20214;-64
2022/04/14 04:02:24;;;;;;;8.30;6.60;;;;;;;9.65;100.00;98234.91;5073918;28;20211;-64
2022/04/14 04:04:50;;;;;;;8.87;6.87;;;;;;;9.60;100.00;98239.66;5072312;28;20211;-64
2022/04/14 04:07:16;;;;;;;9.87;7.40;;;;;;;9.58;100.00;98233.59;5073665;28;20218;-64
2022/04/14 04:09:43;;;;;;;9.37;7.63;;;;;;;9.59;100.00;98240.56;5073556;28;20208;-64
2022/04/14 04:12:10;;;;;;;13.13;7.70;;;;;;;9.58;100.00;98237.09;5073603;28;20306;-64
2022/04/14 04:14:37;;;;;;;10.80;7.80;;;;;;;9.50;100.00;98235.88;5073681;28;20212;-64
2022/04/14 04:17:05;;;;;;;10.43;7.27;;;;;;;9.38;100.00;98239.31;5073681;28;20227;-64
2022/04/14 04:19:32;;;;;;;11.30;7.77;;;;;;;9.26;100.00;98237.44;5073687;28;20207;-64
2022/04/14 04:21:58;;;;;;;9.10;7.13;;;;;;;9.11;100.00;98241.03;5073557;28;20648;-64
2022/04/14 04:24:24;;;;;;;9.77;7.30;;;;;;;8.97;100.00;98238.38;5073534;28;20211;-64
2022/04/14 04:26:52;;;;;;;8.93;7.50;;;;;;;8.93;100.00;98242.97;5073452;28;20219;-64
2022/04/14 04:29:19;;;;;;;10.10;7.80;;;;;;;8.92;100.00;98243.91;5071739;28;20241;-64
2022/04/14 04:31:45;;;;;;;10.40;8.33;;;;;;;8.92;100.00;98246.56;5073427;28;20247;-64
2022/04/14 04:34:13;;;;;;;9.40;8.40;;;;;;;8.95;100.00;98253.44;5073380;28;20215;-64
2022/04/14 04:36:39;;;;;;;12.90;8.90;;;;;;;8.96;100.00;98249.84;5073184;28;20215;-64
2022/04/14 04:39:06;;;;;;;10.20;8.37;;;;;;;8.95;100.00;98253.44;5062539;28;20219;-64
2022/04/14 04:41:32;;;;;;;13.53;9.13;;;;;;;9.02;100.00;98257.38;5073198;28;20254;-64
2022/04/14 04:43:59;;;;;;;13.13;8.93;;;;;;;9.02;100.00;98249.47;5073155;28;20212;-64
2022/04/14 04:46:25;;;;;;;12.60;9.40;;;;;;;9.14;100.00;98261.91;5073062;28;20222;-64
2022/04/14 04:48:52;;;;;;;11.20;9.20;;;;;;;9.21;100.00;98260.59;5073159;28;20219;-63
2022/04/14 04:51:19;;;;;;;13.00;9.53;;;;;;;9.36;100.00;98265.75;5073155;28;20216;-64
2022/04/14 04:53:46;;;;;;;14.10;9.77;;;;;;;9.43;100.00;98267.06;5073113;28;20214;-64
2022/04/14 04:56:13;;;;;;;13.93;10.10;;;;;;;9.46;100.00;98266.03;5071608;28;20211;-63
2022/04/14 04:58:39;;;;;;;12.77;10.20;;;;;;;9.51;100.00;98263.97;5072101;28;20219;-64
2022/04/14 05:01:06;;;;;;;12.90;10.10;;;;;;;9.58;100.00;98267.91;5072923;28;20258;-64
2022/04/14 05:03:32;;;;;;;14.10;9.67;;;;;;;9.60;100.00;98279.22;5073063;28;20211;-64
2022/04/14 05:05:59;;;;;;;12.27;9.67;;;;;;;9.65;100.00;98277.13;5067005;28;20211;-63
2022/04/14 05:08:26;;;;;;;12.87;10.07;;;;;;;9.69;100.00;98290.06;5072917;28;20219;-64
2022/04/14 05:10:53;;;;;;;11.77;9.00;;;;;;;9.73;100.00;98288.91;5073077;28;20219;-64
2022/04/14 05:13:20;;;;;;;14.00;9.13;;;;;;;9.81;100.00;98285.78;5072838;28;20221;-63
2022/04/14 05:15:46;;;;;;;14.70;9.57;;;;;;;9.91;100.00;98287.72;5072569;28;20224;-63
2022/04/14 05:18:13;;;;;;;12.90;9.27;;;;;;;9.97;100.00;98287.34;5072630;28;20215;-65
2022/04/14 05:20:42;;;;;;;11.90;9.30;;;;;;;10.07;100.00;98285.84;5072608;28;20243;-65
2022/04/14 05:23:09;;;;;;;12.20;8.40;;;;;;;10.16;100.00;98289.69;5070786;28;20209;-64
2022/04/14 05:25:39;;;;;;;13.53;8.80;;;;;;;10.27;100.00;98300.41;5072449;28;20299;-64
2022/04/14 05:28:06;;;;;;;13.23;8.90;;;;;;;10.38;100.00;98301.38;5072827;28;20215;-63
2022/04/14 05:30:33;;;;;;;11.87;9.43;;;;;;;10.47;100.00;98305.22;5072886;28;20592;-64
2022/04/14 05:32:59;;;;;;;11.57;8.23;;;;;;;10.55;100.00;98306.41;5072634;28;20207;-65
2022/04/14 05:35:26;;;;;;;9.00;8.07;;;;;;;10.64;100.00;98310.25;5072413;28;20207;-64
2022/04/14 05:37:53;;;;;;;12.43;8.30;;;;;;;10.73;100.00;98309.59;5072852;28;20222;-63
2022/04/14 05:40:19;;;;;;;12.20;8.20;;;;;;;10.80;100.00;98308.25;5072580;28;20243;-64
2022/04/14 05:42:47;;;;;;;10.53;8.00;;;;;;;10.88;100.00;98317.34;5072658;28;20238;-63
2022/04/14 05:45:14;;;;;;;9.90;8.20;;;;;;;11.00;100.00;98315.69;5072673;28;20227;-63
2022/04/14 05:47:41;;;;;;;10.93;7.67;;;;;;;11.09;100.00;98315.91;5070885;28;20243;-63
2022/04/14 05:50:08;;;;;;;12.07;8.00;;;;;;;11.23;100.00;98313.16;5072698;28;20239;-63
2022/04/14 05:52:34;;;;;;;12.90;9.67;;;;;;;11.38;100.00;98316.56;5072385;28;20223;-63
2022/04/14 05:55:02;;;;;;;19.33;13.77;;;;;;;11.55;100.00;98313.59;5072288;28;20211;-64
2022/04/14 05:57:28;;;;;;;20.20;14.70;;;;;;;11.71;100.00;98320.38;5072420;28;20211;-64
2022/04/14 05:59:56;;;;;;;21.20;16.47;;;;;;;11.86;100.00;98323.72;5072298;28;20700;-64
2022/04/14 06:02:23;;;;;;;23.30;17.67;;;;;;;11.99;100.00;98324.53;5072243;28;20235;-63
2022/04/14 06:04:49;;;;;;;26.07;20.07;;;;;;;12.16;100.00;98318.88;5072359;28;20218;-63
2022/04/14 06:07:16;;;;;;;29.70;21.80;;;;;;;12.30;100.00;98322.19;5072334;28;20218;-64
2022/04/14 06:09:43;;;;;;;35.13;24.20;;;;;;;12.53;100.00;98309.91;5072141;28;20677;-63
2022/04/14 06:12:10;;;;;;;31.23;23.90;;;;;;;12.80;100.00;98314.00;5072179;28;20236;-64
2022/04/14 06:14:36;;;;;;;32.53;23.83;;;;;;;12.94;100.00;98326.22;5059729;28;20219;-64
2022/04/14 06:17:05;;;;;;;32.13;23.67;;;;;;;13.04;100.00;98327.25;5072375;28;20218;-63
2022/04/14 06:19:31;;;;;;;33.20;25.83;;;;;;;13.07;100.00;98333.16;5074984;28;20225;-63
2022/04/14 06:21:58;;;;;;;36.17;23.60;;;;;;;13.18;100.00;98338.50;5075892;28;20250;-64
2022/04/14 06:24:24;;;;;;;32.17;24.37;;;;;;;13.19;100.00;98342.00;5075694;28;20224;-64
2022/04/14 06:26:51;;;;;;;31.23;24.00;;;;;;;13.27;100.00;98334.31;5075794;28;20589;-64
2022/04/14 06:29:17;;;;;;;31.90;23.70;;;;;;;13.39;100.00;98339.50;5075664;28;20560;-64
2022/04/14 06:31:43;;;;;;;33.67;24.43;;;;;;;13.45;100.00;98338.19;5075688;28;20216;-64
2022/04/14 06:34:12;;;;;;;28.63;21.93;;;;;;;13.59;100.00;98340.63;5075485;28;20229;-63
2022/04/14 06:36:39;;;;;;;30.93;21.33;;;;;;;13.73;100.00;98337.72;5075683;28;20224;-64
2022/04/14 06:39:12;;;;;;;29.13;21.73;;;;;;;13.79;100.00;98334.59;5074414;28;20632;-63
2022/04/14 06:41:38;;;;;;;30.43;22.70;;;;;;;13.87;100.00;98337.50;5075550;28;20247;-64
2022/04/14 06:44:06;;;;;;;29.50;22.37;;;;;;;13.83;100.00;98344.03;5075360;28;20228;-63
2022/04/14 06:46:32;;;;;;;29.80;22.30;;;;;;;13.96;100.00;98342.06;5075332;28;20222;-64
2022/04/14 06:48:58;;;;;;;28.40;21.93;;;;;;;13.99;100.00;98341.84;5075410;28;20218;-63
2022/04/14 06:51:26;;;;;;;31.23;22.37;;;;;;;14.00;100.00;98338.22;5075145;28;20215;-63
2022/04/14 06:53:53;;;;;;;30.00;22.63;;;;;;;14.01;100.00;98343.41;5074840;28;20218;-63
2022/04/14 06:56:19;;;;;;;25.70;20.07;;;;;;;14.09;100.00;98343.66;5075225;28;20244;-63
2022/04/14 06:58:45;;;;;;;26.07;21.17;;;;;;;14.16;100.00;98343.97;5075240;28;20221;-64
2022/04/14 07:01:12;;;;;;;26.03;20.87;;;;;;;14.27;100.00;98346.66;5075084;28;20239;-64
2022/04/14 07:03:38;;;;;;;26.50;21.03;;;;;;;14.30;100.00;98343.78;5074998;28;20218;-64
2022/04/14 07:06:05;;;;;;;26.43;20.00;;;;;;;14.40;100.00;98350.88;5073414;28;20243;-64
2022/04/14 07:08:33;;;;;;;24.70;20.50;;;;;;;14.52;100.00;98349.88;5074949;28;20225;-64
2022/04/14 07:11:01;;;;;;;25.70;19.60;;;;;;;14.61;100.00;98351.78;5074913;28;20215;-64
2022/04/14 07:13:27;;;;;;;24.70;18.67;;;;;;;14.75;100.00;98347.97;5075043;28;20226;-64
2022/04/14 07:15:55;;;;;;;26.97;19.80;;;;;;;14.86;100.00;98358.59;5074632;28;20222;-64
2022/04/14 07:18:22;;;;;;;23.80;19.30;;;;;;;15.00;100.00;98356.47;5074750;28;20215;-64
2022/04/14 07:20:49;;;;;;;24.40;19.63;;;;;;;15.07;100.00;98364.78;5074737;28;20265;-64
2022/04/14 07:23:15;;;;;;;25.07;18.60;;;;;;;15.18;100.00;98364.72;5074529;28;20239;-63
2022/04/14 07:25:44;;;;;;;23.97;19.47;;;;;;;15.36;100.00;98360.56;5074399;28;20592;-63
2022/04/14 07:28:11;;;;;;;24.50;17.80;;;;;;;15.49;99.28;98353.22;5071132;28;20220;-63
2022/04/14 07:30:39;;;;;;;25.00;18.53;;;;;;;15.54;96.48;98361.66;5066683;28;20215;-64
2022/04/14 07:33:06;;;;;;;25.83;18.63;;;;;;;15.63;95.70;98358.22;5072735;28;20581;-65
2022/04/14 07:35:33;;;;;;;23.17;18.30;;;;;;;15.76;94.45;98362.34;5074445;28;20218;-64
2022/04/14 07:38:00;;;;;;;24.63;18.53;;;;;;;15.76;93.58;98372.16;5074032;28;20215;-65
2022/04/14 07:40:26;;;;;;;20.67;17.53;;;;;;;15.91;93.67;98365.50;5074159;28;20221;-63
2022/04/14 07:42:56;;;;;;;23.40;17.67;;;;;;;15.98;94.06;98364.84;5074197;28;20250;-64
2022/04/14 07:45:23;;;;;;;21.57;17.07;;;;;;;16.14;93.48;98374.03;5074148;28;20211;-63
2022/04/14 07:47:49;;;;;;;19.37;17.00;;;;;;;16.32;92.32;98379.56;5074190;28;20211;-63
2022/04/14 07:50:17;;;;;;;21.83;18.03;;;;;;;16.33;91.14;98376.75;5073936;28;20677;-63
2022/04/14 07:52:48;;;;;;;25.73;18.63;;;;;;;16.36;91.27;98387.16;5074112;28;20215;-63
2022/04/14 07:55:22;;;;;;;23.50;18.13;;;;;;;16.38;91.70;98384.38;5074150;28;20224;-64
2022/04/14 07:57:49;;;;;;;20.27;16.43;;;;;;;16.48;90.82;98383.44;5062154;28;20215;-64
2022/04/14 08:00:18;;;;;;;22.10;17.30;;;;;;;16.47;88.86;98392.41;5073581;28;20220;-64
2022/04/14 08:02:49;;;;;;;18.33;15.70;;;;;;;16.57;88.93;98393.28;5073716;28;20250;-64
2022/04/14 08:05:15;;;;;;;23.10;16.53;;;;;;;16.69;88.85;98394.88;5073601;28;20227;-62
2022/04/14 08:07:41;;;;;;;20.73;17.73;;;;;;;16.79;87.86;98392.22;5073815;28;20215;-64
2022/04/14 08:10:09;;;;;;;19.70;17.43;;;;;;;16.78;87.99;98393.19;5073434;28;20219;-63
2022/04/14 08:12:35;;;;;;;21.00;16.73;;;;;;;16.90;85.46;98395.63;5073311;28;20215;-63
2022/04/14 08:15:02;;;;;;;24.53;17.47;;;;;;;16.88;86.64;98407.41;5072882;28;20238;-63
2022/04/14 08:17:30;;;;;;;19.73;16.60;;;;;;;16.85;85.71;98402.34;5073733;28;20284;-63
2022/04/14 08:19:56;;;;;;;20.83;17.03;;;;;;;16.82;86.22;98403.44;5073603;28;20302;-63
2022/04/14 08:22:23;;;;;;;22.27;16.37;;;;;;;16.92;87.23;98398.97;5073889;28;20654;-63
2022/04/14 08:24:50;;;;;;;21.03;16.33;;;;;;;16.98;86.56;98408.25;5071864;28;20207;-63
2022/04/14 08:27:18;;;;;;;20.43;16.83;;;;;;;17.05;86.87;98396.88;5073248;28;20251;-63
2022/04/14 08:29:44;;;;;;;20.33;17.20;;;;;;;17.20;86.52;98403.47;5073183;28;20265;-63
2022/04/14 08:32:11;;;;;;;23.30;17.37;;;;;;;17.32;85.56;98401.53;5073400;28;20219;-62
2022/04/14 08:34:39;;;;;;;19.23;17.20;;;;;;;17.49;83.69;98404.34;5073421;28;20215;-63
2022/04/14 08:37:06;;;;;;;23.57;17.83;;;;;;;17.43;84.36;98399.56;5062708;28;20242;-63
2022/04/14 08:39:32;;;;;;;19.90;15.63;;;;;;;17.37;85.60;98394.78;5073162;28;20230;-63
2022/04/14 08:42:07;;;;;;;17.87;14.90;;;;;;;17.37;85.57;98394.78;5071938;28;20247;-63
2022/04/14 08:44:37;;;;;;;18.57;14.50;;;;;;;17.48;84.10;98402.66;5062385;28;20245;-63
2022/04/14 08:47:06;;;;;;;20.30;16.93;;;;;;;17.55;83.21;98398.44;5073148;28;20216;-64
2022/04/14 08:49:34;;;;;;;23.13;17.20;;;;;;;17.60;83.67;98400.66;5071497;28;20215;-65
2022/04/14 08:52:02;;;;;;;21.57;16.67;;;;;;;17.61;82.51;98403.22;5073160;28;20579;-63
2022/04/14 08:54:30;;;;;;;21.33;17.67;;;;;;;17.51;81.56;98402.41;5072852;28;20677;-64
2022/04/14 08:56:58;;;;;;;19.03;15.40;;;;;;;17.44;82.75;98397.75;5072975;28;20219;-63
2022/04/14 08:59:25;;;;;;;21.87;15.97;;;;;;;17.47;84.60;98401.00;5072929;28;20219;-63
2022/04/14 09:01:52;;;;;;;17.27;14.60;;;;;;;17.68;84.08;98396.28;5073046;28;20246;-64
2022/04/14 09:04:19;;;;;;;22.63;15.70;;;;;;;17.82;81.40;98406.56;5073204;28;20216;-63
2022/04/14 09:06:45;;;;;;;17.67;15.67;;;;;;;17.87;79.13;98408.81;5073069;28;20218;-62
2022/04/14 09:09:13;;;;;;;20.60;16.73;;;;;;;17.95;79.54;98406.22;5073003;28;20218;-63
2022/04/14 09:11:40;;;;;;;17.67;15.47;;;;;;;17.80;80.13;98397.81;5072952;28;20222;-63
2022/04/14 09:14:06;;;;;;;22.70;16.50;;;;;;;17.83;80.34;98396.69;5072886;28;20208;-64
2022/04/14 09:16:33;;;;;;;20.13;16.77;;;;;;;17.84;81.32;98401.91;5071336;28;20589;-63
2022/04/14 09:19:01;;;;;;;23.70;17.07;;;;;;;17.89;81.57;98399.66;5072751;28;20241;-63
2022/04/14 09:21:27;;;;;;;20.03;15.60;;;;;;;17.93;82.62;98397.53;5073066;28;20222;-63
2022/04/14 09:23:54;;;;;;;16.70;14.70;;;;;;;18.05;82.34;98401.72;5072597;28;20227;-64
2022/04/14 09:26:25;;;;;;;19.87;15.57;;;;;;;18.35;79.21;98405.00;5072646;28;20305;-64
2022/04/14 09:29:03;;;;;;;16.50;14.63;;;;;;;18.37;75.79;98413.72;5072509;28;20215;-62
2022/04/14 09:31:30;;;;;;;16.97;14.23;;;;;;;18.29;75.62;98410.91;5067507;28;20210;-61
2022/04/14 09:33:56;;;;;;;21.37;15.00;;;;;;;18.26;74.19;98411.22;5072577;28;20576;-61
2022/04/14 09:36:23;;;;;;;19.83;16.03;;;;;;;18.19;74.72;98410.09;5072750;28;20246;-61
2022/04/14 09:38:55;;;;;;;18.77;14.63;;;;;;;18.24;76.00;98407.81;5072984;28;20274;-61
2022/04/14 09:41:35;;;;;;;20.70;15.30;;;;;;;18.31;76.93;98410.78;5066050;28;20249;-62
2022/04/14 09:44:04;;;;;;;19.97;15.30;;;;;;;18.41;77.77;98415.09;5062793;28;20242;-61
2022/04/14 09:46:31;;;;;;;19.20;15.13;;;;;;;18.44;77.37;98412.16;5072705;28;20212;-62
2022/04/14 09:49:03;;;;;;;19.30;15.60;;;;;;;18.53;74.81;98413.91;5072716;28;20219;-62
2022/04/14 09:51:30;;;;;;;18.47;14.57;;;;;;;18.68;73.17;98406.22;5072744;28;20255;-62
2022/04/14 09:54:04;;;;;;;17.07;14.57;;;;;;;18.64;74.30;98399.47;5075879;28;20215;-61
2022/04/14 09:56:43;;;;;;;18.00;13.37;;;;;;;18.61;74.81;98406.00;5076466;28;20207;-60
2022/04/14 09:59:11;;;;;;;15.80;12.87;;;;;;;18.72;73.40;98403.09;5062350;28;20580;-61
2022/04/14 10:01:38;;;;;;;15.67;13.10;;;;;;;18.83;72.80;98394.88;5065395;28;20211;-62
2022/04/14 10:04:05;;;;;;;18.50;15.60;;;;;;;18.84;71.57;98399.22;5075987;28;20239;-61
2022/04/14 10:06:32;;;;;;;16.33;14.60;;;;;;;18.88;72.09;98392.59;5075810;28;20680;-63
2022/04/14 10:08:58;;;;;;;18.20;14.10;;;;;;;18.93;72.31;98395.66;5074455;28;20217;-63
2022/04/14 10:11:27;;;;;;;16.77;14.57;;;;;;;18.99;73.23;98389.69;5076009;28;20219;-61
2022/04/14 10:14:09;;;;;;;17.83;15.97;;;;;;;19.03;71.98;98384.88;5076094;28;20216;-64
2022/04/14 10:16:36;;;;;;;17.90;14.10;;;;;;;19.10;72.65;98385.94;5075970;28;20218;-61
2022/04/14 10:19:02;;;;;;;15.50;13.90;;;;;;;19.18;70.90;98384.19;5075603;28;20662;-61
2022/04/14 10:21:30;;;;;;;18.80;14.73;;;;;;;19.17;70.06;98387.00;5075844;28;20220;-63
2022/04/14 10:23:56;;;;;;;20.37;14.93;;;;;;;19.30;71.88;98382.97;5075380;28;20239;-63
2022/04/14 10:26:23;;;;;;;17.93;14.70;;;;;;;19.53;69.26;98389.56;5075556;28;20223;-61
2022/04/14 10:28:50;;;;;;;19.30;15.07;;;;;;;19.47;69.81;98384.81;5075806;28;20207;-61
2022/04/14 10:31:19;;;;;;;21.40;15.40;;;;;;;19.57;69.72;98387.41;5075803;28;20234;-61
2022/04/14 10:33:46;;;;;;;20.10;16.87;;;;;;;19.65;70.27;98391.00;5073742;28;20215;-61
2022/04/14 10:36:13;;;;;;;17.37;14.87;;;;;;;19.61;71.18;98391.44;5075673;28;20227;-62
2022/04/14 10:38:42;;;;;;;14.67;13.17;;;;;;;19.65;70.16;98385.63;5075572;28;20220;-61
2022/04/14 10:41:15;;;;;;;17.30;15.40;;;;;;;19.73;68.20;98377.63;5075435;28;20239;-61
2022/04/14 10:43:43;;;;;;;20.10;15.67;;;;;;;19.77;66.90;98384.38;5075508;28;20274;-63
2022/04/14 10:46:11;;;;;;;16.67;13.17;;;;;;;19.68;68.09;98382.63;5075445;28;20220;-63
2022/04/14 10:48:39;;;;;;;17.00;15.20;;;;;;;19.69;71.44;98378.94;5075362;28;20298;-64
2022/04/14 10:51:24;;;;;;;19.47;16.27;;;;;;;19.87;70.91;98377.06;5075329;28;20220;-64
2022/04/14 10:53:55;;;;;;;19.13;15.27;;;;;;;19.98;70.35;98375.94;5074969;28;20219;-63
2022/04/14 10:56:43;;;;;;;17.37;15.47;;;;;;;20.15;66.93;98381.28;5075084;28;20218;-64
2022/04/14 10:59:11;;;;;;;19.00;14.93;;;;;;;20.22;66.91;98382.34;5073739;28;20289;-64
2022/04/14 11:01:54;;;;;;;15.33;13.73;;;;;;;20.22;67.09;98376.97;5075169;28;20242;-64
2022/04/14 11:04:26;;;;;;;17.93;14.97;;;;;;;20.32;65.81;98379.53;5074265;28;20238;-64
2022/04/14 11:06:57;;;;;;;19.33;14.03;;;;;;;20.25;62.81;98382.00;5075214;28;20215;-64
2022/04/14 11:09:47;;;;;;;19.53;13.83;;;;;;;20.25;62.66;98378.50;5074819;28;20636;-63
2022/04/14 11:12:14;;;;;;;16.33;12.97;;;;;;;20.18;63.33;98375.59;5074706;28;20219;-64
2022/04/14 11:14:45;;;;;;;15.93;12.80;;;;;;;20.21;63.05;98377.97;5067088;28;20700;-63
2022/04/14 11:17:58;;;;;;;15.87;12.77;;;;;;;20.15;64.33;98378.59;5075015;28;20213;-64
2022/04/14 11:20:54;;;;;;;17.50;14.87;;;;;;;20.15;63.01;98385.81;5064621;28;20217;-64
2022/04/14 11:23:24;;;;;;;16.83;13.33;;;;;;;20.17;63.71;98392.69;5074442;28;20243;-64